sensor_id;sensor_type;location;lat;lon;timestamp;pressure;altitude;pressure_sealevel;temperature;humidity
10366;BME280;5229;41.820;23.490;2022-09-09T00:00:13;90436.66;;;17.31;64.46
10366;BME280;5229;41.820;23.490;2022-09-09T00:02:45;90436.19;;;17.29;64.63
10366;BME280;5229;41.820;23.490;2022-09-09T00:05:19;90440.66;;;17.29;64.27
10366;BME280;5229;41.820;23.490;2022-09-09T00:07:53;90435.44;;;17.29;64.58
10366;BME280;5229;41.820;23.490;2022-09-09T00:10:27;90430.50;;;17.27;64.57
10366;BME280;5229;41.820;23.490;2022-09-09T00:12:59;90426.72;;;17.25;64.51
10366;BME280;5229;41.820;23.490;2022-09-09T00:15:31;90430.75;;;17.22;64.48
10366;BME280;5229;41.820;23.490;2022-09-09T00:18:08;90437.09;;;17.21;64.58
10366;BME280;5229;41.820;23.490;2022-09-09T00:20:43;90434.69;;;17.16;64.89
10366;BME280;5229;41.820;23.490;2022-09-09T00:23:17;90426.31;;;17.11;64.77
10366;BME280;5229;41.820;23.490;2022-09-09T00:25:51;90431.53;;;17.11;64.68
10366;BME280;5229;41.820;23.490;2022-09-09T00:28:24;90424.34;;;17.08;65.05
10366;BME280;5229;41.820;23.490;2022-09-09T00:30:52;90423.59;;;17.07;64.99
10366;BME280;5229;41.820;23.490;2022-09-09T00:33:22;90430.59;;;17.03;65.38
10366;BME280;5229;41.820;23.490;2022-09-09T00:35:52;90429.72;;;16.99;65.65
10366;BME280;5229;41.820;23.490;2022-09-09T00:38:25;90435.31;;;16.98;65.29
10366;BME280;5229;41.820;23.490;2022-09-09T00:40:59;90438.66;;;16.98;65.20
10366;BME280;5229;41.820;23.490;2022-09-09T00:43:29;90439.44;;;16.99;65.90
10366;BME280;5229;41.820;23.490;2022-09-09T00:46:19;90441.28;;;16.98;65.86
10366;BME280;5229;41.820;23.490;2022-09-09T00:48:58;90439.53;;;17.02;65.92
10366;BME280;5229;41.820;23.490;2022-09-09T00:51:36;90441.75;;;17.00;65.89
10366;BME280;5229;41.820;23.490;2022-09-09T00:54:31;90422.41;;;16.93;66.03
10366;BME280;5229;41.820;23.490;2022-09-09T00:57:13;90424.19;;;16.89;65.56
10366;BME280;5229;41.820;23.490;2022-09-09T00:59:47;90425.59;;;16.86;66.03
10366;BME280;5229;41.820;23.490;2022-09-09T01:02:21;90418.06;;;16.85;66.18
10366;BME280;5229;41.820;23.490;2022-09-09T01:04:52;90414.25;;;16.82;65.97
10366;BME280;5229;41.820;23.490;2022-09-09T01:07:20;90422.13;;;16.82;65.99
10366;BME280;5229;41.820;23.490;2022-09-09T01:09:56;90428.34;;;16.78;66.24
10366;BME280;5229;41.820;23.490;2022-09-09T01:12:30;90427.56;;;16.77;66.54
10366;BME280;5229;41.820;23.490;2022-09-09T01:15:09;90415.13;;;16.74;66.61
10366;BME280;5229;41.820;23.490;2022-09-09T01:17:46;90422.97;;;16.74;66.13
10366;BME280;5229;41.820;23.490;2022-09-09T01:20:18;90420.69;;;16.73;66.60
10366;BME280;5229;41.820;23.490;2022-09-09T01:22:57;90422.91;;;16.71;66.69
10366;BME280;5229;41.820;23.490;2022-09-09T01:26:13;90410.38;;;16.64;66.59
10366;BME280;5229;41.820;23.490;2022-09-09T01:28:44;90410.91;;;16.70;66.76
10366;BME280;5229;41.820;23.490;2022-09-09T01:31:16;90410.66;;;16.75;66.68
10366;BME280;5229;41.820;23.490;2022-09-09T01:33:43;90420.38;;;16.74;66.64
10366;BME280;5229;41.820;23.490;2022-09-09T01:36:13;90410.22;;;16.73;66.31
10366;BME280;5229;41.820;23.490;2022-09-09T01:38:41;90413.94;;;16.72;66.80
10366;BME280;5229;41.820;23.490;2022-09-09T01:41:09;90414.25;;;16.70;66.81
10366;BME280;5229;41.820;23.490;2022-09-09T01:43:36;90414.59;;;16.69;66.58
10366;BME280;5229;41.820;23.490;2022-09-09T01:46:04;90411.22;;;16.68;66.57
10366;BME280;5229;41.820;23.490;2022-09-09T01:48:30;90410.13;;;16.69;66.60
10366;BME280;5229;41.820;23.490;2022-09-09T01:50:57;90416.78;;;16.67;66.51
10366;BME280;5229;41.820;23.490;2022-09-09T01:53:24;90411.44;;;16.63;67.19
10366;BME280;5229;41.820;23.490;2022-09-09T01:55:58;90407.19;;;16.59;66.99
10366;BME280;5229;41.820;23.490;2022-09-09T01:58:34;90406.44;;;16.58;67.63
10366;BME280;5229;41.820;23.490;2022-09-09T02:01:12;90413.97;;;16.60;67.32
10366;BME280;5229;41.820;23.490;2022-09-09T02:03:44;90413.19;;;16.59;67.44
10366;BME280;5229;41.820;23.490;2022-09-09T02:06:22;90415.81;;;16.59;67.13
10366;BME280;5229;41.820;23.490;2022-09-09T02:08:53;90412.09;;;16.60;67.65
10366;BME280;5229;41.820;23.490;2022-09-09T02:11:23;90410.69;;;16.63;67.28
10366;BME280;5229;41.820;23.490;2022-09-09T02:13:54;90415.94;;;16.63;67.59
10366;BME280;5229;41.820;23.490;2022-09-09T02:16:26;90417.13;;;16.65;67.15
10366;BME280;5229;41.820;23.490;2022-09-09T02:19:00;90410.38;;;16.64;67.18
10366;BME280;5229;41.820;23.490;2022-09-09T02:21:29;90409.91;;;16.62;67.33
10366;BME280;5229;41.820;23.490;2022-09-09T02:23:59;90409.91;;;16.62;67.66
10366;BME280;5229;41.820;23.490;2022-09-09T02:26:30;90410.69;;;16.63;67.41
10366;BME280;5229;41.820;23.490;2022-09-09T02:29:03;90402.50;;;16.64;67.96
10366;BME280;5229;41.820;23.490;2022-09-09T02:31:34;90396.91;;;16.66;67.70
10366;BME280;5229;41.820;23.490;2022-09-09T02:34:03;90408.59;;;16.68;67.74
10366;BME280;5229;41.820;23.490;2022-09-09T02:36:33;90403.03;;;16.70;67.30
10366;BME280;5229;41.820;23.490;2022-09-09T02:39:00;90410.78;;;16.66;67.57
10366;BME280;5229;41.820;23.490;2022-09-09T02:41:31;90396.16;;;16.65;67.77
10366;BME280;5229;41.820;23.490;2022-09-09T02:44:01;90394.66;;;16.64;67.41
10366;BME280;5229;41.820;23.490;2022-09-09T02:46:36;90396.38;;;16.60;67.52
10366;BME280;5229;41.820;23.490;2022-09-09T02:49:09;90402.28;;;16.57;68.12
10366;BME280;5229;41.820;23.490;2022-09-09T02:51:40;90406.63;;;16.53;67.83
10366;BME280;5229;41.820;23.490;2022-09-09T02:54:17;90397.50;;;16.47;67.90
10366;BME280;5229;41.820;23.490;2022-09-09T02:56:51;90389.84;;;16.42;68.28
10366;BME280;5229;41.820;23.490;2022-09-09T02:59:21;90401.88;;;16.43;68.21
10366;BME280;5229;41.820;23.490;2022-09-09T03:01:49;90390.91;;;16.41;68.46
10366;BME280;5229;41.820;23.490;2022-09-09T03:04:16;90394.63;;;16.40;68.31
10366;BME280;5229;41.820;23.490;2022-09-09T03:06:42;90388.63;;;16.40;68.37
10366;BME280;5229;41.820;23.490;2022-09-09T03:09:09;90376.63;;;16.39;68.81
10366;BME280;5229;41.820;23.490;2022-09-09T03:11:36;90384.16;;;16.40;68.61
10366;BME280;5229;41.820;23.490;2022-09-09T03:14:04;90384.16;;;16.40;68.44
10366;BME280;5229;41.820;23.490;2022-09-09T03:16:32;90391.41;;;16.43;68.31
10366;BME280;5229;41.820;23.490;2022-09-09T03:18:59;90387.22;;;16.42;68.26
10366;BME280;5229;41.820;23.490;2022-09-09T03:21:26;90389.09;;;16.42;68.59
10366;BME280;5229;41.820;23.490;2022-09-09T03:23:53;90390.16;;;16.41;68.73
10366;BME280;5229;41.820;23.490;2022-09-09T03:26:20;90388.63;;;16.40;68.32
10366;BME280;5229;41.820;23.490;2022-09-09T03:28:48;90397.56;;;16.39;68.51
10366;BME280;5229;41.820;23.490;2022-09-09T03:31:17;90396.06;;;16.38;68.55
10366;BME280;5229;41.820;23.490;2022-09-09T03:33:46;90393.31;;;16.34;68.84
10366;BME280;5229;41.820;23.490;2022-09-09T03:36:13;90404.44;;;16.31;68.27
10366;BME280;5229;41.820;23.490;2022-09-09T03:38:40;90394.63;;;16.28;68.63
10366;BME280;5229;41.820;23.490;2022-09-09T03:41:07;90390.81;;;16.26;68.61
10366;BME280;5229;41.820;23.490;2022-09-09T03:43:34;90386.66;;;16.25;68.90
10366;BME280;5229;41.820;23.490;2022-09-09T03:46:02;90387.41;;;16.25;68.59
10366;BME280;5229;41.820;23.490;2022-09-09T03:48:29;90389.94;;;16.22;68.53
10366;BME280;5229;41.820;23.490;2022-09-09T03:50:57;90386.53;;;16.21;68.61
10366;BME280;5229;41.820;23.490;2022-09-09T03:53:26;90380.13;;;16.19;68.89
10366;BME280;5229;41.820;23.490;2022-09-09T03:55:55;90382.41;;;16.20;69.30
10366;BME280;5229;41.820;23.490;2022-09-09T03:58:26;90390.25;;;16.20;68.64
10366;BME280;5229;41.820;23.490;2022-09-09T04:00:54;90401.59;;;16.24;69.25
10366;BME280;5229;41.820;23.490;2022-09-09T04:03:22;90391.59;;;16.26;68.57
10366;BME280;5229;41.820;23.490;2022-09-09T04:05:50;90408.16;;;16.30;68.69
10366;BME280;5229;41.820;23.490;2022-09-09T04:08:18;90409.34;;;16.33;68.46
10366;BME280;5229;41.820;23.490;2022-09-09T04:10:45;90411.75;;;16.38;68.41
10366;BME280;5229;41.820;23.490;2022-09-09T04:13:13;90414.03;;;16.39;69.14
10366;BME280;5229;41.820;23.490;2022-09-09T04:15:43;90409.56;;;16.40;68.66
10366;BME280;5229;41.820;23.490;2022-09-09T04:18:10;90402.59;;;16.44;68.66
10366;BME280;5229;41.820;23.490;2022-09-09T04:20:37;90396.72;;;16.47;69.16
10366;BME280;5229;41.820;23.490;2022-09-09T04:23:04;90394.66;;;16.52;68.84
10366;BME280;5229;41.820;23.490;2022-09-09T04:25:33;90388.19;;;16.62;68.77
10366;BME280;5229;41.820;23.490;2022-09-09T04:28:00;90392.91;;;16.68;68.34
10366;BME280;5229;41.820;23.490;2022-09-09T04:30:27;90394.72;;;16.80;68.12
10366;BME280;5229;41.820;23.490;2022-09-09T04:32:54;90398.44;;;16.91;67.70
10366;BME280;5229;41.820;23.490;2022-09-09T04:35:21;90402.09;;;17.02;67.90
10366;BME280;5229;41.820;23.490;2022-09-09T04:37:48;90405.47;;;17.14;67.18
10366;BME280;5229;41.820;23.490;2022-09-09T04:40:15;90410.22;;;17.24;67.42
10366;BME280;5229;41.820;23.490;2022-09-09T04:42:43;90412.34;;;17.34;67.09
10366;BME280;5229;41.820;23.490;2022-09-09T04:45:10;90413.09;;;17.47;67.42
10366;BME280;5229;41.820;23.490;2022-09-09T04:47:38;90411.19;;;17.60;67.04
10366;BME280;5229;41.820;23.490;2022-09-09T04:50:07;90412.25;;;17.71;66.62
10366;BME280;5229;41.820;23.490;2022-09-09T04:52:34;90415.41;;;17.76;66.40
10366;BME280;5229;41.820;23.490;2022-09-09T04:55:00;90408.56;;;17.87;66.60
10366;BME280;5229;41.820;23.490;2022-09-09T04:57:27;90414.56;;;18.03;66.25
10366;BME280;5229;41.820;23.490;2022-09-09T04:59:58;90400.53;;;18.27;65.96
10366;BME280;5229;41.820;23.490;2022-09-09T05:02:25;90399.97;;;18.49;65.54
10366;BME280;5229;41.820;23.490;2022-09-09T05:04:52;90391.03;;;18.69;64.95
10366;BME280;5229;41.820;23.490;2022-09-09T05:07:19;90392.53;;;18.85;64.68
10366;BME280;5229;41.820;23.490;2022-09-09T05:09:45;90403.44;;;19.03;64.42
10366;BME280;5229;41.820;23.490;2022-09-09T05:12:14;90409.56;;;19.26;64.01
10366;BME280;5229;41.820;23.490;2022-09-09T05:14:41;90418.00;;;19.54;63.82
10366;BME280;5229;41.820;23.490;2022-09-09T05:17:10;90418.22;;;19.83;63.24
10366;BME280;5229;41.820;23.490;2022-09-09T05:19:38;90425.19;;;20.14;62.59
10366;BME280;5229;41.820;23.490;2022-09-09T05:22:05;90423.56;;;20.51;61.61
10366;BME280;5229;41.820;23.490;2022-09-09T05:24:32;90421.94;;;20.92;60.43
10366;BME280;5229;41.820;23.490;2022-09-09T05:26:59;90423.81;;;21.43;59.22
10366;BME280;5229;41.820;23.490;2022-09-09T05:29:28;90425.25;;;22.00;57.61
10366;BME280;5229;41.820;23.490;2022-09-09T05:31:54;90435.69;;;22.59;56.33
10366;BME280;5229;41.820;23.490;2022-09-09T05:34:23;90425.53;;;23.15;54.95
10366;BME280;5229;41.820;23.490;2022-09-09T05:36:50;90424.00;;;23.75;53.45
10366;BME280;5229;41.820;23.490;2022-09-09T05:39:17;90411.69;;;24.25;52.02
10366;BME280;5229;41.820;23.490;2022-09-09T05:41:44;90401.53;;;24.48;51.08
10366;BME280;5229;41.820;23.490;2022-09-09T05:44:11;90390.50;;;24.18;51.24
10366;BME280;5229;41.820;23.490;2022-09-09T05:46:38;90395.25;;;23.81;52.18
10366;BME280;5229;41.820;23.490;2022-09-09T05:49:05;90391.34;;;23.54;52.86
10366;BME280;5229;41.820;23.490;2022-09-09T05:51:35;90390.88;;;23.34;53.11
10366;BME280;5229;41.820;23.490;2022-09-09T05:54:01;90394.97;;;23.21;53.53
10366;BME280;5229;41.820;23.490;2022-09-09T05:56:29;90394.56;;;23.16;53.64
10366;BME280;5229;41.820;23.490;2022-09-09T05:58:56;90408.56;;;23.20;53.84
10366;BME280;5229;41.820;23.490;2022-09-09T06:01:24;90409.78;;;23.33;53.53
10366;BME280;5229;41.820;23.490;2022-09-09T06:03:52;90405.47;;;23.79;52.38
10366;BME280;5229;41.820;23.490;2022-09-09T06:06:20;90415.59;;;24.73;50.18
10366;BME280;5229;41.820;23.490;2022-09-09T06:08:51;90418.84;;;25.89;47.46
10366;BME280;5229;41.820;23.490;2022-09-09T06:11:20;90420.56;;;27.03;45.37
10366;BME280;5229;41.820;23.490;2022-09-09T06:13:48;90424.00;;;28.18;43.07
10366;BME280;5229;41.820;23.490;2022-09-09T06:16:18;90430.25;;;29.21;41.19
10366;BME280;5229;41.820;23.490;2022-09-09T06:18:45;90429.38;;;30.16;39.64
10366;BME280;5229;41.820;23.490;2022-09-09T06:21:16;90432.75;;;31.11;37.49
10366;BME280;5229;41.820;23.490;2022-09-09T06:23:43;90421.53;;;31.96;36.18
10366;BME280;5229;41.820;23.490;2022-09-09T06:26:13;90421.41;;;32.69;34.49
10366;BME280;5229;41.820;23.490;2022-09-09T06:28:40;90434.81;;;33.48;33.72
10366;BME280;5229;41.820;23.490;2022-09-09T06:31:10;90444.72;;;34.32;32.15
10366;BME280;5229;41.820;23.490;2022-09-09T06:33:38;90437.38;;;35.18;31.25
10366;BME280;5229;41.820;23.490;2022-09-09T06:36:07;90436.13;;;35.90;30.17
10366;BME280;5229;41.820;23.490;2022-09-09T06:38:36;90443.97;;;36.60;29.02
10366;BME280;5229;41.820;23.490;2022-09-09T06:41:03;90434.56;;;37.24;28.45
10366;BME280;5229;41.820;23.490;2022-09-09T06:43:32;90439.94;;;37.74;27.35
10366;BME280;5229;41.820;23.490;2022-09-09T06:46:02;90445.69;;;38.24;26.55
10366;BME280;5229;41.820;23.490;2022-09-09T06:48:29;90439.66;;;38.67;25.73
10366;BME280;5229;41.820;23.490;2022-09-09T06:51:04;90447.75;;;39.05;25.59
10366;BME280;5229;41.820;23.490;2022-09-09T06:53:31;90452.88;;;39.32;25.25
10366;BME280;5229;41.820;23.490;2022-09-09T06:55:59;90458.13;;;39.35;25.24
10366;BME280;5229;41.820;23.490;2022-09-09T06:58:28;90457.88;;;39.48;25.26
10366;BME280;5229;41.820;23.490;2022-09-09T07:01:03;90463.25;;;39.77;23.64
10366;BME280;5229;41.820;23.490;2022-09-09T07:03:30;90464.00;;;40.12;23.59
10366;BME280;5229;41.820;23.490;2022-09-09T07:05:57;90462.72;;;40.42;23.22
10366;BME280;5229;41.820;23.490;2022-09-09T07:08:24;90461.09;;;40.70;23.16
10366;BME280;5229;41.820;23.490;2022-09-09T07:10:52;90457.63;;;40.95;23.15
10366;BME280;5229;41.820;23.490;2022-09-09T07:13:23;90458.03;;;41.08;22.95
10366;BME280;5229;41.820;23.490;2022-09-09T07:15:50;90457.78;;;41.06;22.60
10366;BME280;5229;41.820;23.490;2022-09-09T07:18:19;90466.03;;;41.17;22.45
10366;BME280;5229;41.820;23.490;2022-09-09T07:20:52;90459.50;;;41.04;22.38
10366;BME280;5229;41.820;23.490;2022-09-09T07:23:19;90467.28;;;41.16;22.10
10366;BME280;5229;41.820;23.490;2022-09-09T07:25:46;90461.38;;;41.49;22.18
10366;BME280;5229;41.820;23.490;2022-09-09T07:28:14;90457.56;;;41.66;22.03
10366;BME280;5229;41.820;23.490;2022-09-09T07:30:40;90453.78;;;41.89;21.44
10366;BME280;5229;41.820;23.490;2022-09-09T07:33:08;90459.66;;;42.19;21.54
10366;BME280;5229;41.820;23.490;2022-09-09T07:35:37;90463.00;;;42.39;20.82
10366;BME280;5229;41.820;23.490;2022-09-09T07:38:03;90449.63;;;42.41;20.96
10366;BME280;5229;41.820;23.490;2022-09-09T07:40:32;90452.84;;;42.40;21.10
10366;BME280;5229;41.820;23.490;2022-09-09T07:42:59;90449.69;;;42.52;21.11
10366;BME280;5229;41.820;23.490;2022-09-09T07:45:26;90456.72;;;42.70;20.75
10366;BME280;5229;41.820;23.490;2022-09-09T07:47:54;90452.31;;;42.89;20.46
10366;BME280;5229;41.820;23.490;2022-09-09T07:50:22;90449.09;;;42.91;20.42
10366;BME280;5229;41.820;23.490;2022-09-09T07:52:51;90444.34;;;42.85;20.45
10366;BME280;5229;41.820;23.490;2022-09-09T07:55:19;90441.59;;;42.85;20.82
10366;BME280;5229;41.820;23.490;2022-09-09T07:57:45;90432.47;;;43.00;20.56
10366;BME280;5229;41.820;23.490;2022-09-09T08:00:13;90441.94;;;43.04;20.47
10366;BME280;5229;41.820;23.490;2022-09-09T08:02:41;90444.59;;;42.82;20.67
10366;BME280;5229;41.820;23.490;2022-09-09T08:05:08;90442.31;;;42.22;21.08
10366;BME280;5229;41.820;23.490;2022-09-09T08:07:34;90444.88;;;41.32;22.12
10366;BME280;5229;41.820;23.490;2022-09-09T08:10:03;90441.69;;;40.22;23.36
10366;BME280;5229;41.820;23.490;2022-09-09T08:12:30;90432.13;;;39.14;23.48
10366;BME280;5229;41.820;23.490;2022-09-09T08:14:57;90432.59;;;37.98;24.79
10366;BME280;5229;41.820;23.490;2022-09-09T08:17:24;90424.69;;;37.03;26.16
10366;BME280;5229;41.820;23.490;2022-09-09T08:19:51;90427.88;;;36.20;26.71
10366;BME280;5229;41.820;23.490;2022-09-09T08:22:19;90425.28;;;35.32;27.61
10366;BME280;5229;41.820;23.490;2022-09-09T08:24:48;90416.16;;;34.77;28.41
10366;BME280;5229;41.820;23.490;2022-09-09T08:27:16;90418.59;;;34.84;28.95
10366;BME280;5229;41.820;23.490;2022-09-09T08:29:43;90415.28;;;35.11;28.58
10366;BME280;5229;41.820;23.490;2022-09-09T08:32:10;90415.63;;;35.61;28.58
10366;BME280;5229;41.820;23.490;2022-09-09T08:34:36;90419.66;;;36.33;27.41
10366;BME280;5229;41.820;23.490;2022-09-09T08:37:03;90419.59;;;36.96;26.71
10366;BME280;5229;41.820;23.490;2022-09-09T08:39:30;90418.22;;;37.83;25.96
10366;BME280;5229;41.820;23.490;2022-09-09T08:42:29;90416.34;;;38.75;24.23
10366;BME280;5229;41.820;23.490;2022-09-09T08:45:20;90418.22;;;39.56;23.75
10366;BME280;5229;41.820;23.490;2022-09-09T08:48:04;90424.84;;;40.04;23.33
10366;BME280;5229;41.820;23.490;2022-09-09T08:50:36;90412.91;;;40.56;22.91
10366;BME280;5229;41.820;23.490;2022-09-09T08:53:05;90414.03;;;40.90;22.99
10366;BME280;5229;41.820;23.490;2022-09-09T08:55:41;90413.97;;;41.10;21.95
10366;BME280;5229;41.820;23.490;2022-09-09T08:58:16;90412.50;;;41.40;22.29
10366;BME280;5229;41.820;23.490;2022-09-09T09:00:56;90409.91;;;41.87;21.93
10366;BME280;5229;41.820;23.490;2022-09-09T09:03:33;90421.31;;;42.33;21.08
10366;BME280;5229;41.820;23.490;2022-09-09T09:06:06;90416.75;;;42.67;20.58
10366;BME280;5229;41.820;23.490;2022-09-09T09:08:44;90414.84;;;42.95;20.63
10366;BME280;5229;41.820;23.490;2022-09-09T09:11:15;90415.34;;;42.99;20.62
10366;BME280;5229;41.820;23.490;2022-09-09T09:13:47;90418.56;;;42.98;20.48
10366;BME280;5229;41.820;23.490;2022-09-09T09:16:22;90419.28;;;43.04;20.68
10366;BME280;5229;41.820;23.490;2022-09-09T09:18:51;90409.38;;;43.01;20.42
10366;BME280;5229;41.820;23.490;2022-09-09T09:21:32;90414.13;;;43.33;20.53
10366;BME280;5229;41.820;23.490;2022-09-09T09:24:01;90415.66;;;43.62;20.32
10366;BME280;5229;41.820;23.490;2022-09-09T09:26:33;90426.34;;;43.43;19.93
10366;BME280;5229;41.820;23.490;2022-09-09T09:29:10;90402.72;;;42.37;20.81
10366;BME280;5229;41.820;23.490;2022-09-09T09:31:37;90390.44;;;41.69;21.66
10366;BME280;5229;41.820;23.490;2022-09-09T09:34:04;90386.00;;;41.09;22.88
10366;BME280;5229;41.820;23.490;2022-09-09T09:36:37;90376.72;;;41.27;22.67
10366;BME280;5229;41.820;23.490;2022-09-09T09:39:05;90383.53;;;41.42;22.64
10366;BME280;5229;41.820;23.490;2022-09-09T09:41:34;90377.84;;;41.82;22.02
10366;BME280;5229;41.820;23.490;2022-09-09T09:44:03;90384.13;;;42.41;21.61
10366;BME280;5229;41.820;23.490;2022-09-09T09:46:30;90386.69;;;42.61;21.62
10366;BME280;5229;41.820;23.490;2022-09-09T09:48:58;90388.00;;;42.88;21.46
10366;BME280;5229;41.820;23.490;2022-09-09T09:51:26;90385.81;;;43.20;21.64
10366;BME280;5229;41.820;23.490;2022-09-09T09:53:54;90385.34;;;43.43;20.68
10366;BME280;5229;41.820;23.490;2022-09-09T09:56:30;90383.38;;;43.44;20.95
10366;BME280;5229;41.820;23.490;2022-09-09T09:58:58;90385.03;;;42.92;21.20
10366;BME280;5229;41.820;23.490;2022-09-09T10:01:27;90391.88;;;42.54;21.39
10366;BME280;5229;41.820;23.490;2022-09-09T10:03:58;90386.34;;;42.37;21.61
10366;BME280;5229;41.820;23.490;2022-09-09T10:06:32;90380.50;;;41.66;22.15
10366;BME280;5229;41.820;23.490;2022-09-09T10:09:01;90382.25;;;40.81;23.46
10366;BME280;5229;41.820;23.490;2022-09-09T10:11:41;90381.38;;;39.69;23.46
10366;BME280;5229;41.820;23.490;2022-09-09T10:14:17;90378.63;;;38.62;24.50
10366;BME280;5229;41.820;23.490;2022-09-09T10:16:59;90365.78;;;37.72;26.38
10366;BME280;5229;41.820;23.490;2022-09-09T10:19:33;90358.00;;;36.82;27.13
10366;BME280;5229;41.820;23.490;2022-09-09T10:22:19;90361.25;;;35.99;28.04
10366;BME280;5229;41.820;23.490;2022-09-09T10:25:14;90352.06;;;35.21;28.36
10366;BME280;5229;41.820;23.490;2022-09-09T10:27:55;90352.44;;;34.62;30.16
10366;BME280;5229;41.820;23.490;2022-09-09T10:30:34;90341.91;;;34.12;30.76
10366;BME280;5229;41.820;23.490;2022-09-09T10:33:10;90344.56;;;33.69;31.23
10366;BME280;5229;41.820;23.490;2022-09-09T10:35:44;90336.47;;;33.47;31.95
10366;BME280;5229;41.820;23.490;2022-09-09T10:38:18;90335.59;;;33.38;32.51
10366;BME280;5229;41.820;23.490;2022-09-09T10:44:17;90337.44;;;33.41;32.87
10366;BME280;5229;41.820;23.490;2022-09-09T10:47:02;90341.50;;;33.33;32.44
10366;BME280;5229;41.820;23.490;2022-09-09T10:49:50;90343.16;;;33.17;33.29
10366;BME280;5229;41.820;23.490;2022-09-09T10:52:28;90339.31;;;33.06;33.20
10366;BME280;5229;41.820;23.490;2022-09-09T10:55:02;90343.94;;;32.93;33.40
10366;BME280;5229;41.820;23.490;2022-09-09T10:57:36;90338.09;;;32.82;33.75
10366;BME280;5229;41.820;23.490;2022-09-09T11:00:06;90335.22;;;32.64;33.41
10366;BME280;5229;41.820;23.490;2022-09-09T11:02:41;90333.25;;;32.39;33.84
10366;BME280;5229;41.820;23.490;2022-09-09T11:05:14;90334.16;;;32.20;34.12
10366;BME280;5229;41.820;23.490;2022-09-09T11:07:47;90329.94;;;32.07;34.33
10366;BME280;5229;41.820;23.490;2022-09-09T11:10:21;90330.25;;;31.96;34.39
10366;BME280;5229;41.820;23.490;2022-09-09T11:12:53;90324.31;;;31.89;34.71
10366;BME280;5229;41.820;23.490;2022-09-09T11:15:28;90314.97;;;31.81;35.18
10366;BME280;5229;41.820;23.490;2022-09-09T11:18:00;90323.06;;;31.77;35.16
10366;BME280;5229;41.820;23.490;2022-09-09T11:20:29;90318.75;;;31.67;35.14
10366;BME280;5229;41.820;23.490;2022-09-09T11:23:01;90316.97;;;31.48;35.31
10366;BME280;5229;41.820;23.490;2022-09-09T11:25:34;90320.34;;;31.36;35.42
10366;BME280;5229;41.820;23.490;2022-09-09T11:28:25;90312.72;;;31.19;35.40
10366;BME280;5229;41.820;23.490;2022-09-09T11:31:02;90310.38;;;31.05;36.01
10366;BME280;5229;41.820;23.490;2022-09-09T11:33:54;90312.31;;;30.88;35.74
10366;BME280;5229;41.820;23.490;2022-09-09T11:36:47;90311.66;;;30.84;36.11
10366;BME280;5229;41.820;23.490;2022-09-09T11:39:35;90310.63;;;30.78;36.90
10366;BME280;5229;41.820;23.490;2022-09-09T11:42:07;90305.03;;;30.73;36.54
10366;BME280;5229;41.820;23.490;2022-09-09T11:44:34;90297.75;;;30.73;36.68
10366;BME280;5229;41.820;23.490;2022-09-09T11:47:01;90298.22;;;30.68;36.85
10366;BME280;5229;41.820;23.490;2022-09-09T11:49:30;90298.72;;;30.63;37.39
10366;BME280;5229;41.820;23.490;2022-09-09T11:52:13;90300.06;;;30.55;36.86
10366;BME280;5229;41.820;23.490;2022-09-09T11:54:48;90305.06;;;30.53;37.32
10366;BME280;5229;41.820;23.490;2022-09-09T11:57:29;90305.66;;;30.44;37.46
10366;BME280;5229;41.820;23.490;2022-09-09T11:59:58;90307.59;;;30.44;36.61
10366;BME280;5229;41.820;23.490;2022-09-09T12:02:27;90311.09;;;30.41;36.73
10366;BME280;5229;41.820;23.490;2022-09-09T12:04:59;90311.81;;;30.41;37.34
10366;BME280;5229;41.820;23.490;2022-09-09T12:07:37;90309.56;;;30.40;37.25
10366;BME280;5229;41.820;23.490;2022-09-09T12:10:20;90305.91;;;30.34;37.74
10366;BME280;5229;41.820;23.490;2022-09-09T12:12:48;90297.19;;;30.30;38.14
10366;BME280;5229;41.820;23.490;2022-09-09T12:15:25;90300.34;;;30.25;38.33
10366;BME280;5229;41.820;23.490;2022-09-09T12:17:55;90295.91;;;30.18;38.35
10366;BME280;5229;41.820;23.490;2022-09-09T12:20:32;90294.84;;;30.12;38.85
10366;BME280;5229;41.820;23.490;2022-09-09T12:23:21;90293.50;;;30.04;38.57
10366;BME280;5229;41.820;23.490;2022-09-09T12:26:16;90295.91;;;29.99;38.44
10366;BME280;5229;41.820;23.490;2022-09-09T12:28:55;90289.88;;;29.95;38.41
10366;BME280;5229;41.820;23.490;2022-09-09T12:31:32;90291.81;;;29.94;38.51
10366;BME280;5229;41.820;23.490;2022-09-09T12:34:10;90287.00;;;29.86;38.99
10366;BME280;5229;41.820;23.490;2022-09-09T12:36:39;90277.53;;;29.81;39.41
10366;BME280;5229;41.820;23.490;2022-09-09T12:39:18;90282.28;;;29.74;39.68
10366;BME280;5229;41.820;23.490;2022-09-09T12:41:53;90277.81;;;29.67;39.40
10366;BME280;5229;41.820;23.490;2022-09-09T12:44:23;90265.72;;;29.63;39.81
10366;BME280;5229;41.820;23.490;2022-09-09T12:46:51;90274.94;;;29.58;39.78
10366;BME280;5229;41.820;23.490;2022-09-09T12:49:28;90272.81;;;29.50;40.19
10366;BME280;5229;41.820;23.490;2022-09-09T12:51:56;90269.44;;;29.46;40.21
10366;BME280;5229;41.820;23.490;2022-09-09T12:54:25;90261.06;;;29.44;41.05
10366;BME280;5229;41.820;23.490;2022-09-09T12:56:53;90259.22;;;29.41;41.19
10366;BME280;5229;41.820;23.490;2022-09-09T12:59:25;90253.56;;;29.39;41.58
10366;BME280;5229;41.820;23.490;2022-09-09T13:01:56;90251.34;;;29.34;42.00
10366;BME280;5229;41.820;23.490;2022-09-09T13:04:23;90251.88;;;29.25;42.41
10366;BME280;5229;41.820;23.490;2022-09-09T13:06:50;90247.38;;;29.22;41.81
10366;BME280;5229;41.820;23.490;2022-09-09T13:09:18;90248.13;;;29.23;41.40
10366;BME280;5229;41.820;23.490;2022-09-09T13:11:50;90246.53;;;29.25;41.50
10366;BME280;5229;41.820;23.490;2022-09-09T13:14:27;90242.31;;;29.28;41.04
10366;BME280;5229;41.820;23.490;2022-09-09T13:16:57;90244.22;;;29.27;40.77
10366;BME280;5229;41.820;23.490;2022-09-09T13:19:25;90239.28;;;29.26;40.89
10366;BME280;5229;41.820;23.490;2022-09-09T13:21:54;90238.53;;;29.25;40.60
10366;BME280;5229;41.820;23.490;2022-09-09T13:24:32;90237.38;;;29.26;40.36